sensor_id;sensor_type;location;lat;lon;timestamp;P1;durP1;ratioP1;P2;durP2;ratioP2
66175;SDS011;52977;44.816;20.538;2023-10-13T00:01:46;14.02;;;5.90;;
66175;SDS011;52977;44.816;20.538;2023-10-13T00:04:13;11.75;;;5.90;;
66175;SDS011;52977;44.816;20.538;2023-10-13T00:06:40;11.13;;;5.70;;
66175;SDS011;52977;44.816;20.538;2023-10-13T00:09:08;16.65;;;6.57;;
66175;SDS011;52977;44.816;20.538;2023-10-13T00:11:43;11.50;;;5.63;;
66175;SDS011;52977;44.816;20.538;2023-10-13T00:14:13;13.02;;;6.25;;
66175;SDS011;52977;44.816;20.538;2023-10-13T00:16:43;12.52;;;5.40;;
66175;SDS011;52977;44.816;20.538;2023-10-13T00:19:31;12.60;;;5.68;;
66175;SDS011;52977;44.816;20.538;2023-10-13T00:22:13;11.32;;;5.22;;
66175;SDS011;52977;44.816;20.538;2023-10-13T00:24:45;12.38;;;5.40;;
66175;SDS011;52977;44.816;20.538;2023-10-13T00:27:12;13.63;;;6.55;;
66175;SDS011;52977;44.816;20.538;2023-10-13T00:30:03;14.90;;;5.68;;
66175;SDS011;52977;44.816;20.538;2023-10-13T00:32:51;14.35;;;6.22;;
66175;SDS011;52977;44.816;20.538;2023-10-13T00:35:25;13.07;;;6.10;;
66175;SDS011;52977;44.816;20.538;2023-10-13T00:38:02;16.40;;;6.50;;
66175;SDS011;52977;44.816;20.538;2023-10-13T00:40:48;11.20;;;5.88;;
66175;SDS011;52977;44.816;20.538;2023-10-13T00:43:18;15.18;;;6.43;;
66175;SDS011;52977;44.816;20.538;2023-10-13T00:45:46;13.43;;;6.68;;
66175;SDS011;52977;44.816;20.538;2023-10-13T00:48:29;11.75;;;6.25;;
66175;SDS011;52977;44.816;20.538;2023-10-13T00:51:03;20.13;;;7.30;;
66175;SDS011;52977;44.816;20.538;2023-10-13T00:53:34;11.52;;;5.57;;
66175;SDS011;52977;44.816;20.538;2023-10-13T00:56:10;15.77;;;6.45;;
66175;SDS011;52977;44.816;20.538;2023-10-13T00:58:46;11.00;;;5.38;;
66175;SDS011;52977;44.816;20.538;2023-10-13T01:01:13;15.75;;;6.43;;
66175;SDS011;52977;44.816;20.538;2023-10-13T01:03:49;14.18;;;6.60;;
66175;SDS011;52977;44.816;20.538;2023-10-13T01:06:37;15.50;;;6.28;;
66175;SDS011;52977;44.816;20.538;2023-10-13T01:09:04;15.15;;;7.03;;
66175;SDS011;52977;44.816;20.538;2023-10-13T01:11:45;13.48;;;6.00;;
66175;SDS011;52977;44.816;20.538;2023-10-13T01:14:19;16.38;;;6.65;;
66175;SDS011;52977;44.816;20.538;2023-10-13T01:16:47;15.98;;;7.38;;
66175;SDS011;52977;44.816;20.538;2023-10-13T01:19:18;16.50;;;7.47;;
66175;SDS011;52977;44.816;20.538;2023-10-13T01:21:53;16.00;;;6.68;;
66175;SDS011;52977;44.816;20.538;2023-10-13T01:24:28;17.30;;;7.22;;
66175;SDS011;52977;44.816;20.538;2023-10-13T01:27:00;13.68;;;7.35;;
66175;SDS011;52977;44.816;20.538;2023-10-13T01:29:46;16.27;;;6.85;;
66175;SDS011;52977;44.816;20.538;2023-10-13T01:32:21;14.48;;;7.00;;
66175;SDS011;52977;44.816;20.538;2023-10-13T01:34:49;17.52;;;6.97;;
66175;SDS011;52977;44.816;20.538;2023-10-13T01:37:15;16.38;;;6.82;;
66175;SDS011;52977;44.816;20.538;2023-10-13T01:39:41;12.90;;;6.93;;
66175;SDS011;52977;44.816;20.538;2023-10-13T01:42:08;16.65;;;7.35;;
66175;SDS011;52977;44.816;20.538;2023-10-13T01:44:34;14.63;;;6.95;;
66175;SDS011;52977;44.816;20.538;2023-10-13T01:47:01;13.90;;;6.85;;
66175;SDS011;52977;44.816;20.538;2023-10-13T01:49:32;15.55;;;7.65;;
66175;SDS011;52977;44.816;20.538;2023-10-13T01:52:10;14.98;;;6.70;;
66175;SDS011;52977;44.816;20.538;2023-10-13T01:54:38;14.98;;;6.78;;
66175;SDS011;52977;44.816;20.538;2023-10-13T01:57:10;15.88;;;7.30;;
66175;SDS011;52977;44.816;20.538;2023-10-13T01:59:49;13.88;;;6.97;;
66175;SDS011;52977;44.816;20.538;2023-10-13T02:02:15;15.32;;;6.88;;
66175;SDS011;52977;44.816;20.538;2023-10-13T02:04:52;18.83;;;7.47;;
66175;SDS011;52977;44.816;20.538;2023-10-13T02:07:44;16.88;;;7.47;;
66175;SDS011;52977;44.816;20.538;2023-10-13T02:10:29;17.75;;;7.40;;
66175;SDS011;52977;44.816;20.538;2023-10-13T02:12:57;15.18;;;7.90;;
66175;SDS011;52977;44.816;20.538;2023-10-13T02:15:23;20.15;;;7.85;;
66175;SDS011;52977;44.816;20.538;2023-10-13T02:17:52;21.00;;;8.40;;
66175;SDS011;52977;44.816;20.538;2023-10-13T02:20:20;14.82;;;7.43;;
66175;SDS011;52977;44.816;20.538;2023-10-13T02:22:56;15.82;;;8.50;;
66175;SDS011;52977;44.816;20.538;2023-10-13T02:25:22;19.85;;;8.82;;
66175;SDS011;52977;44.816;20.538;2023-10-13T02:28:06;25.92;;;9.52;;
66175;SDS011;52977;44.816;20.538;2023-10-13T02:30:43;21.42;;;9.15;;
66175;SDS011;52977;44.816;20.538;2023-10-13T02:33:16;27.23;;;12.40;;
66175;SDS011;52977;44.816;20.538;2023-10-13T02:36:03;23.40;;;11.48;;
66175;SDS011;52977;44.816;20.538;2023-10-13T02:38:31;20.98;;;11.80;;
66175;SDS011;52977;44.816;20.538;2023-10-13T02:43:44;26.92;;;12.85;;
66175;SDS011;52977;44.816;20.538;2023-10-13T02:46:11;26.95;;;13.88;;
66175;SDS011;52977;44.816;20.538;2023-10-13T02:48:37;29.85;;;15.88;;
66175;SDS011;52977;44.816;20.538;2023-10-13T02:51:06;27.17;;;15.57;;
66175;SDS011;52977;44.816;20.538;2023-10-13T02:53:43;35.88;;;18.67;;
66175;SDS011;52977;44.816;20.538;2023-10-13T02:56:15;32.13;;;17.52;;
66175;SDS011;52977;44.816;20.538;2023-10-13T02:59:04;30.10;;;16.08;;
66175;SDS011;52977;44.816;20.538;2023-10-13T03:01:34;29.48;;;13.43;;
66175;SDS011;52977;44.816;20.538;2023-10-13T03:04:01;25.27;;;11.13;;
66175;SDS011;52977;44.816;20.538;2023-10-13T03:06:29;20.20;;;9.82;;
66175;SDS011;52977;44.816;20.538;2023-10-13T03:08:59;16.73;;;9.27;;
66175;SDS011;52977;44.816;20.538;2023-10-13T03:11:39;16.48;;;9.25;;
66175;SDS011;52977;44.816;20.538;2023-10-13T03:14:18;18.15;;;10.57;;
66175;SDS011;52977;44.816;20.538;2023-10-13T03:17:09;21.27;;;10.82;;
66175;SDS011;52977;44.816;20.538;2023-10-13T03:19:44;24.83;;;13.32;;
66175;SDS011;52977;44.816;20.538;2023-10-13T03:22:33;31.42;;;17.25;;
66175;SDS011;52977;44.816;20.538;2023-10-13T03:24:59;31.60;;;17.33;;
66175;SDS011;52977;44.816;20.538;2023-10-13T03:27:32;42.22;;;24.23;;
66175;SDS011;52977;44.816;20.538;2023-10-13T03:30:24;43.22;;;25.60;;
66175;SDS011;52977;44.816;20.538;2023-10-13T03:33:03;43.03;;;23.63;;
66175;SDS011;52977;44.816;20.538;2023-10-13T03:35:38;39.35;;;21.20;;
66175;SDS011;52977;44.816;20.538;2023-10-13T03:38:08;39.33;;;20.30;;
66175;SDS011;52977;44.816;20.538;2023-10-13T03:40:49;37.92;;;19.40;;
66175;SDS011;52977;44.816;20.538;2023-10-13T03:43:41;34.00;;;19.17;;
66175;SDS011;52977;44.816;20.538;2023-10-13T03:46:18;34.38;;;20.40;;
66175;SDS011;52977;44.816;20.538;2023-10-13T03:48:47;37.80;;;20.50;;
66175;SDS011;52977;44.816;20.538;2023-10-13T03:51:20;29.60;;;18.15;;
66175;SDS011;52977;44.816;20.538;2023-10-13T03:53:47;36.08;;;20.45;;
66175;SDS011;52977;44.816;20.538;2023-10-13T03:56:19;35.75;;;19.42;;
66175;SDS011;52977;44.816;20.538;2023-10-13T03:58:52;31.40;;;18.13;;
66175;SDS011;52977;44.816;20.538;2023-10-13T04:01:40;33.47;;;17.90;;
66175;SDS011;52977;44.816;20.538;2023-10-13T04:04:08;30.08;;;16.88;;
66175;SDS011;52977;44.816;20.538;2023-10-13T04:06:40;33.38;;;16.63;;
66175;SDS011;52977;44.816;20.538;2023-10-13T04:14:29;27.65;;;14.10;;
66175;SDS011;52977;44.816;20.538;2023-10-13T04:17:06;25.13;;;13.68;;
66175;SDS011;52977;44.816;20.538;2023-10-13T04:19:40;27.73;;;14.13;;
66175;SDS011;52977;44.816;20.538;2023-10-13T04:22:42;30.15;;;14.02;;
66175;SDS011;52977;44.816;20.538;2023-10-13T04:25:11;31.63;;;14.55;;
66175;SDS011;52977;44.816;20.538;2023-10-13T04:28:16;30.20;;;14.13;;
66175;SDS011;52977;44.816;20.538;2023-10-13T04:31:01;52.20;;;20.80;;
66175;SDS011;52977;44.816;20.538;2023-10-13T04:33:50;34.70;;;17.13;;
66175;SDS011;52977;44.816;20.538;2023-10-13T04:36:26;42.50;;;21.35;;
66175;SDS011;52977;44.816;20.538;2023-10-13T04:38:53;35.83;;;16.45;;
66175;SDS011;52977;44.816;20.538;2023-10-13T04:41:33;32.15;;;15.40;;
66175;SDS011;52977;44.816;20.538;2023-10-13T04:44:26;30.65;;;14.63;;
66175;SDS011;52977;44.816;20.538;2023-10-13T04:47:06;30.70;;;13.40;;
66175;SDS011;52977;44.816;20.538;2023-10-13T04:49:43;25.33;;;12.23;;
66175;SDS011;52977;44.816;20.538;2023-10-13T04:52:12;24.67;;;11.15;;
66175;SDS011;52977;44.816;20.538;2023-10-13T04:54:52;26.42;;;11.52;;
66175;SDS011;52977;44.816;20.538;2023-10-13T04:57:21;31.55;;;12.35;;
66175;SDS011;52977;44.816;20.538;2023-10-13T04:59:48;21.10;;;11.52;;
66175;SDS011;52977;44.816;20.538;2023-10-13T05:02:30;25.17;;;12.57;;
66175;SDS011;52977;44.816;20.538;2023-10-13T05:05:10;24.60;;;12.75;;
66175;SDS011;52977;44.816;20.538;2023-10-13T05:07:36;33.67;;;14.63;;
66175;SDS011;52977;44.816;20.538;2023-10-13T05:10:20;29.30;;;15.00;;
66175;SDS011;52977;44.816;20.538;2023-10-13T05:13:04;30.95;;;15.15;;
66175;SDS011;52977;44.816;20.538;2023-10-13T05:15:49;25.45;;;14.55;;
66175;SDS011;52977;44.816;20.538;2023-10-13T05:18:35;26.27;;;13.02;;
66175;SDS011;52977;44.816;20.538;2023-10-13T05:21:19;23.80;;;10.77;;
66175;SDS011;52977;44.816;20.538;2023-10-13T05:24:04;20.83;;;9.15;;
66175;SDS011;52977;44.816;20.538;2023-10-13T05:26:49;18.05;;;8.23;;
66175;SDS011;52977;44.816;20.538;2023-10-13T05:29:33;19.55;;;8.70;;
66175;SDS011;52977;44.816;20.538;2023-10-13T05:32:17;17.77;;;8.82;;
66175;SDS011;52977;44.816;20.538;2023-10-13T05:35:02;19.23;;;9.20;;
66175;SDS011;52977;44.816;20.538;2023-10-13T05:37:47;17.88;;;10.50;;
66175;SDS011;52977;44.816;20.538;2023-10-13T05:40:31;19.85;;;9.75;;
66175;SDS011;52977;44.816;20.538;2023-10-13T05:43:15;30.20;;;12.23;;
66175;SDS011;52977;44.816;20.538;2023-10-13T05:46:03;24.55;;;11.27;;
66175;SDS011;52977;44.816;20.538;2023-10-13T05:48:48;29.35;;;11.80;;
66175;SDS011;52977;44.816;20.538;2023-10-13T05:51:23;23.50;;;10.93;;
66175;SDS011;52977;44.816;20.538;2023-10-13T05:54:04;22.70;;;10.52;;
66175;SDS011;52977;44.816;20.538;2023-10-13T05:59:24;22.40;;;10.40;;
66175;SDS011;52977;44.816;20.538;2023-10-13T06:02:08;20.08;;;9.27;;
66175;SDS011;52977;44.816;20.538;2023-10-13T06:04:53;19.85;;;8.88;;
66175;SDS011;52977;44.816;20.538;2023-10-13T06:07:37;27.08;;;7.93;;
66175;SDS011;52977;44.816;20.538;2023-10-13T06:10:21;16.88;;;7.95;;
66175;SDS011;52977;44.816;20.538;2023-10-13T06:13:06;17.98;;;8.23;;
66175;SDS011;52977;44.816;20.538;2023-10-13T06:15:51;16.92;;;8.13;;
66175;SDS011;52977;44.816;20.538;2023-10-13T06:18:35;19.13;;;8.65;;
66175;SDS011;52977;44.816;20.538;2023-10-13T06:21:23;17.25;;;7.97;;
66175;SDS011;52977;44.816;20.538;2023-10-13T06:24:07;22.95;;;8.88;;
66175;SDS011;52977;44.816;20.538;2023-10-13T06:26:51;16.65;;;7.75;;
66175;SDS011;52977;44.816;20.538;2023-10-13T06:29:36;15.90;;;7.47;;
66175;SDS011;52977;44.816;20.538;2023-10-13T06:32:02;25.38;;;13.35;;
66175;SDS011;52977;44.816;20.538;2023-10-13T06:34:36;26.83;;;14.50;;
66175;SDS011;52977;44.816;20.538;2023-10-13T06:37:25;27.58;;;13.65;;
66175;SDS011;52977;44.816;20.538;2023-10-13T06:39:55;26.85;;;13.38;;
66175;SDS011;52977;44.816;20.538;2023-10-13T06:42:31;27.42;;;12.50;;
66175;SDS011;52977;44.816;20.538;2023-10-13T06:45:00;22.45;;;10.98;;
66175;SDS011;52977;44.816;20.538;2023-10-13T06:47:37;27.23;;;11.85;;
66175;SDS011;52977;44.816;20.538;2023-10-13T06:50:12;19.65;;;11.07;;
66175;SDS011;52977;44.816;20.538;2023-10-13T06:52:44;20.77;;;11.45;;
66175;SDS011;52977;44.816;20.538;2023-10-13T06:55:14;23.35;;;12.70;;
66175;SDS011;52977;44.816;20.538;2023-10-13T06:57:43;22.25;;;11.80;;
66175;SDS011;52977;44.816;20.538;2023-10-13T07:00:10;21.15;;;11.05;;
66175;SDS011;52977;44.816;20.538;2023-10-13T07:02:57;24.65;;;11.68;;
66175;SDS011;52977;44.816;20.538;2023-10-13T07:05:39;22.88;;;11.32;;
66175;SDS011;52977;44.816;20.538;2023-10-13T07:08:07;20.70;;;11.95;;
66175;SDS011;52977;44.816;20.538;2023-10-13T07:10:48;21.42;;;11.27;;
66175;SDS011;52977;44.816;20.538;2023-10-13T07:13:14;24.67;;;12.82;;
66175;SDS011;52977;44.816;20.538;2023-10-13T07:15:42;24.50;;;12.32;;
66175;SDS011;52977;44.816;20.538;2023-10-13T07:18:28;20.75;;;11.02;;
66175;SDS011;52977;44.816;20.538;2023-10-13T07:21:08;19.48;;;11.38;;
66175;SDS011;52977;44.816;20.538;2023-10-13T07:23:37;21.95;;;10.95;;
66175;SDS011;52977;44.816;20.538;2023-10-13T07:26:05;20.40;;;10.80;;
66175;SDS011;52977;44.816;20.538;2023-10-13T07:28:34;23.75;;;12.05;;
66175;SDS011;52977;44.816;20.538;2023-10-13T07:31:12;24.17;;;11.65;;
66175;SDS011;52977;44.816;20.538;2023-10-13T07:33:40;26.00;;;12.73;;
66175;SDS011;52977;44.816;20.538;2023-10-13T07:36:07;21.65;;;10.68;;
66175;SDS011;52977;44.816;20.538;2023-10-13T07:38:53;23.85;;;12.63;;
66175;SDS011;52977;44.816;20.538;2023-10-13T07:41:37;21.60;;;10.85;;
66175;SDS011;52977;44.816;20.538;2023-10-13T07:44:07;19.95;;;10.77;;
66175;SDS011;52977;44.816;20.538;2023-10-13T07:46:32;21.08;;;10.40;;
66175;SDS011;52977;44.816;20.538;2023-10-13T07:48:58;21.20;;;10.63;;
66175;SDS011;52977;44.816;20.538;2023-10-13T07:51:34;25.23;;;11.80;;
66175;SDS011;52977;44.816;20.538;2023-10-13T07:54:13;28.05;;;12.18;;
66175;SDS011;52977;44.816;20.538;2023-10-13T07:56:49;26.50;;;13.40;;
66175;SDS011;52977;44.816;20.538;2023-10-13T07:59:16;26.90;;;12.80;;
66175;SDS011;52977;44.816;20.538;2023-10-13T08:01:48;21.05;;;10.40;;
66175;SDS011;52977;44.816;20.538;2023-10-13T08:04:33;29.40;;;14.23;;
66175;SDS011;52977;44.816;20.538;2023-10-13T08:07:01;30.73;;;13.95;;
66175;SDS011;52977;44.816;20.538;2023-10-13T08:09:40;28.00;;;13.20;;
66175;SDS011;52977;44.816;20.538;2023-10-13T08:12:07;21.35;;;11.48;;
66175;SDS011;52977;44.816;20.538;2023-10-13T08:14:38;29.75;;;12.50;;
66175;SDS011;52977;44.816;20.538;2023-10-13T08:17:07;32.95;;;12.95;;
66175;SDS011;52977;44.816;20.538;2023-10-13T08:19:53;21.60;;;12.13;;
66175;SDS011;52977;44.816;20.538;2023-10-13T08:22:20;26.17;;;12.57;;
66175;SDS011;52977;44.816;20.538;2023-10-13T08:24:49;25.27;;;10.85;;
66175;SDS011;52977;44.816;20.538;2023-10-13T08:27:18;28.67;;;12.57;;
66175;SDS011;52977;44.816;20.538;2023-10-13T08:30:00;28.90;;;13.05;;
66175;SDS011;52977;44.816;20.538;2023-10-13T08:32:27;26.25;;;12.90;;
66175;SDS011;52977;44.816;20.538;2023-10-13T08:34:53;25.98;;;13.48;;
66175;SDS011;52977;44.816;20.538;2023-10-13T08:37:20;22.35;;;12.65;;
66175;SDS011;52977;44.816;20.538;2023-10-13T08:39:47;25.23;;;11.50;;
66175;SDS011;52977;44.816;20.538;2023-10-13T08:45:16;27.33;;;12.52;;
66175;SDS011;52977;44.816;20.538;2023-10-13T08:47:51;23.63;;;11.93;;
66175;SDS011;52977;44.816;20.538;2023-10-13T08:50:22;24.75;;;11.10;;
66175;SDS011;52977;44.816;20.538;2023-10-13T08:53:14;26.40;;;11.93;;
66175;SDS011;52977;44.816;20.538;2023-10-13T08:56:05;25.08;;;11.63;;
66175;SDS011;52977;44.816;20.538;2023-10-13T08:58:43;20.10;;;10.43;;
66175;SDS011;52977;44.816;20.538;2023-10-13T09:01:26;29.25;;;12.43;;
66175;SDS011;52977;44.816;20.538;2023-10-13T09:04:12;21.30;;;10.95;;
66175;SDS011;52977;44.816;20.538;2023-10-13T09:06:53;26.13;;;10.80;;
66175;SDS011;52977;44.816;20.538;2023-10-13T09:09:23;26.00;;;12.98;;
66175;SDS011;52977;44.816;20.538;2023-10-13T09:11:55;30.45;;;12.88;;
66175;SDS011;52977;44.816;20.538;2023-10-13T09:14:37;24.23;;;12.68;;
66175;SDS011;52977;44.816;20.538;2023-10-13T09:17:09;25.95;;;11.40;;
66175;SDS011;52977;44.816;20.538;2023-10-13T09:20:02;21.42;;;10.98;;
66175;SDS011;52977;44.816;20.538;2023-10-13T09:22:46;27.85;;;11.35;;
66175;SDS011;52977;44.816;20.538;2023-10-13T09:25:45;29.67;;;11.48;;
66175;SDS011;52977;44.816;20.538;2023-10-13T09:28:27;18.15;;;10.05;;
66175;SDS011;52977;44.816;20.538;2023-10-13T09:30:54;22.33;;;10.75;;
66175;SDS011;52977;44.816;20.538;2023-10-13T09:33:25;19.10;;;8.80;;
66175;SDS011;52977;44.816;20.538;2023-10-13T09:36:04;25.35;;;11.73;;
66175;SDS011;52977;44.816;20.538;2023-10-13T09:38:32;24.08;;;10.55;;
66175;SDS011;52977;44.816;20.538;2023-10-13T09:40:59;25.90;;;10.73;;
66175;SDS011;52977;44.816;20.538;2023-10-13T09:43:46;20.55;;;11.18;;
66175;SDS011;52977;44.816;20.538;2023-10-13T09:46:15;26.45;;;10.98;;
66175;SDS011;52977;44.816;20.538;2023-10-13T09:48:46;27.90;;;10.60;;
66175;SDS011;52977;44.816;20.538;2023-10-13T09:51:29;29.00;;;10.77;;
66175;SDS011;52977;44.816;20.538;2023-10-13T09:54:10;23.80;;;10.63;;
66175;SDS011;52977;44.816;20.538;2023-10-13T09:56:50;22.60;;;10.32;;
66175;SDS011;52977;44.816;20.538;2023-10-13T09:59:33;21.88;;;10.25;;
66175;SDS011;52977;44.816;20.538;2023-10-13T10:02:08;31.67;;;10.85;;
66175;SDS011;52977;44.816;20.538;2023-10-13T10:04:38;24.92;;;10.00;;
66175;SDS011;52977;44.816;20.538;2023-10-13T10:07:26;25.52;;;9.82;;
66175;SDS011;52977;44.816;20.538;2023-10-13T10:10:00;23.73;;;10.57;;
66175;SDS011;52977;44.816;20.538;2023-10-13T10:15:32;20.27;;;9.63;;
66175;SDS011;52977;44.816;20.538;2023-10-13T10:18:01;21.52;;;9.85;;
66175;SDS011;52977;44.816;20.538;2023-10-13T10:20:30;25.60;;;10.18;;
66175;SDS011;52977;44.816;20.538;2023-10-13T10:23:29;22.85;;;10.40;;
66175;SDS011;52977;44.816;20.538;2023-10-13T10:26:11;20.38;;;9.80;;
66175;SDS011;52977;44.816;20.538;2023-10-13T10:28:41;26.50;;;10.02;;
66175;SDS011;52977;44.816;20.538;2023-10-13T10:31:09;28.25;;;9.88;;
66175;SDS011;52977;44.816;20.538;2023-10-13T10:33:58;20.67;;;9.05;;
66175;SDS011;52977;44.816;20.538;2023-10-13T10:36:30;17.42;;;9.80;;
66175;SDS011;52977;44.816;20.538;2023-10-13T10:38:57;23.92;;;10.40;;
66175;SDS011;52977;44.816;20.538;2023-10-13T10:41:30;23.60;;;9.73;;
66175;SDS011;52977;44.816;20.538;2023-10-13T10:44:11;23.77;;;10.40;;
66175;SDS011;52977;44.816;20.538;2023-10-13T10:46:56;21.38;;;9.23;;
66175;SDS011;52977;44.816;20.538;2023-10-13T10:49:23;20.73;;;8.80;;
66175;SDS011;52977;44.816;20.538;2023-10-13T10:52:01;22.75;;;8.95;;
66175;SDS011;52977;44.816;20.538;2023-10-13T10:54:30;27.50;;;9.90;;
66175;SDS011;52977;44.816;20.538;2023-10-13T10:56:59;23.65;;;9.00;;
66175;SDS011;52977;44.816;20.538;2023-10-13T10:59:46;21.00;;;9.10;;
66175;SDS011;52977;44.816;20.538;2023-10-13T11:02:29;19.98;;;9.27;;
66175;SDS011;52977;44.816;20.538;2023-10-13T11:04:57;22.77;;;9.98;;
66175;SDS011;52977;44.816;20.538;2023-10-13T11:07:24;22.05;;;9.65;;
66175;SDS011;52977;44.816;20.538;2023-10-13T11:09:50;23.45;;;10.23;;
66175;SDS011;52977;44.816;20.538;2023-10-13T11:15:08;20.33;;;9.02;;
66175;SDS011;52977;44.816;20.538;2023-10-13T11:18:00;17.67;;;8.60;;
66175;SDS011;52977;44.816;20.538;2023-10-13T11:20:31;16.25;;;8.73;;
66175;SDS011;52977;44.816;20.538;2023-10-13T11:23:11;22.10;;;8.98;;
66175;SDS011;52977;44.816;20.538;2023-10-13T11:25:39;19.10;;;9.75;;
66175;SDS011;52977;44.816;20.538;2023-10-13T11:28:12;22.98;;;9.15;;
66175;SDS011;52977;44.816;20.538;2023-10-13T11:33:16;17.52;;;8.27;;
66175;SDS011;52977;44.816;20.538;2023-10-13T11:35:56;13.77;;;7.05;;
66175;SDS011;52977;44.816;20.538;2023-10-13T11:38:28;16.65;;;7.78;;
66175;SDS011;52977;44.816;20.538;2023-10-13T11:41:01;22.02;;;8.20;;
66175;SDS011;52977;44.816;20.538;2023-10-13T11:46:16;17.83;;;8.40;;
66175;SDS011;52977;44.816;20.538;2023-10-13T11:49:07;16.00;;;7.53;;
66175;SDS011;52977;44.816;20.538;2023-10-13T11:51:41;14.20;;;7.50;;
66175;SDS011;52977;44.816;20.538;2023-10-13T11:54:11;16.48;;;7.60;;
66175;SDS011;52977;44.816;20.538;2023-10-13T11:56:48;19.67;;;9.23;;
66175;SDS011;52977;44.816;20.538;2023-10-13T11:59:15;19.85;;;8.52;;
66175;SDS011;52977;44.816;20.538;2023-10-13T12:01:47;17.73;;;8.93;;
66175;SDS011;52977;44.816;20.538;2023-10-13T12:04:32;15.20;;;8.15;;
66175;SDS011;52977;44.816;20.538;2023-10-13T12:06:59;15.70;;;8.10;;
66175;SDS011;52977;44.816;20.538;2023-10-13T12:09:49;15.52;;;7.28;;
66175;SDS011;52977;44.816;20.538;2023-10-13T12:12:25;15.02;;;6.95;;
66175;SDS011;52977;44.816;20.538;2023-10-13T12:14:53;16.70;;;7.78;;
66175;SDS011;52977;44.816;20.538;2023-10-13T12:17:25;17.13;;;7.45;;
66175;SDS011;52977;44.816;20.538;2023-10-13T12:20:02;13.30;;;6.20;;
66175;SDS011;52977;44.816;20.538;2023-10-13T12:22:34;15.85;;;6.00;;
66175;SDS011;52977;44.816;20.538;2023-10-13T12:25:03;17.40;;;6.75;;
66175;SDS011;52977;44.816;20.538;2023-10-13T12:27:30;15.18;;;6.00;;
66175;SDS011;52977;44.816;20.538;2023-10-13T12:30:23;12.85;;;6.00;;
66175;SDS011;52977;44.816;20.538;2023-10-13T12:35:41;11.90;;;5.70;;
66175;SDS011;52977;44.816;20.538;2023-10-13T12:38:24;13.55;;;6.05;;
66175;SDS011;52977;44.816;20.538;2023-10-13T12:41:05;14.55;;;5.80;;
66175;SDS011;52977;44.816;20.538;2023-10-13T12:43:49;9.18;;;5.40;;
66175;SDS011;52977;44.816;20.538;2023-10-13T12:46:33;20.00;;;5.43;;
66175;SDS011;52977;44.816;20.538;2023-10-13T12:49:18;14.30;;;5.20;;
66175;SDS011;52977;44.816;20.538;2023-10-13T12:52:02;12.38;;;5.32;;
66175;SDS011;52977;44.816;20.538;2023-10-13T12:54:28;14.23;;;5.55;;
66175;SDS011;52977;44.816;20.538;2023-10-13T12:57:01;10.85;;;5.03;;
66175;SDS011;52977;44.816;20.538;2023-10-13T12:59:28;12.90;;;5.43;;
66175;SDS011;52977;44.816;20.538;2023-10-13T13:01:54;12.50;;;6.13;;
66175;SDS011;52977;44.816;20.538;2023-10-13T13:04:20;12.15;;;5.45;;
66175;SDS011;52977;44.816;20.538;2023-10-13T13:06:46;14.63;;;6.25;;
66175;SDS011;52977;44.816;20.538;2023-10-13T13:09:14;13.25;;;6.43;;
66175;SDS011;52977;44.816;20.538;2023-10-13T13:11:41;10.07;;;5.82;;
66175;SDS011;52977;44.816;20.538;2023-10-13T13:14:08;16.27;;;5.93;;
66175;SDS011;52977;44.816;20.538;2023-10-13T13:16:35;13.40;;;6.13;;
66175;SDS011;52977;44.816;20.538;2023-10-13T13:19:04;11.77;;;5.70;;
66175;SDS011;52977;44.816;20.538;2023-10-13T13:21:39;13.48;;;5.70;;
66175;SDS011;52977;44.816;20.538;2023-10-13T13:24:05;9.68;;;4.82;;
66175;SDS011;52977;44.816;20.538;2023-10-13T13:26:40;11.27;;;5.55;;
66175;SDS011;52977;44.816;20.538;2023-10-13T13:29:06;19.42;;;5.95;;
66175;SDS011;52977;44.816;20.538;2023-10-13T13:31:38;13.77;;;6.25;;
66175;SDS011;52977;44.816;20.538;2023-10-13T13:34:08;10.43;;;5.70;;
66175;SDS011;52977;44.816;20.538;2023-10-13T13:36:35;15.38;;;6.00;;
66175;SDS011;52977;44.816;20.538;2023-10-13T13:39:01;10.60;;;6.32;;
66175;SDS011;52977;44.816;20.538;2023-10-13T13:41:28;12.48;;;6.10;;
66175;SDS011;52977;44.816;20.538;2023-10-13T13:43:58;13.73;;;6.63;;
66175;SDS011;52977;44.816;20.538;2023-10-13T13:46:39;12.05;;;6.55;;
66175;SDS011;52977;44.816;20.538;2023-10-13T13:49:10;13.85;;;6.72;;
66175;SDS011;52977;44.816;20.538;2023-10-13T13:51:44;12.20;;;6.70;;
66175;SDS011;52977;44.816;20.538;2023-10-13T13:54:17;13.98;;;7.50;;
66175;SDS011;52977;44.816;20.538;2023-10-13T13:56:46;14.05;;;6.90;;
66175;SDS011;52977;44.816;20.538;2023-10-13T13:59:12;15.90;;;7.38;;
66175;SDS011;52977;44.816;20.538;2023-10-13T14:01:42;14.25;;;6.75;;
66175;SDS011;52977;44.816;20.538;2023-10-13T14:04:09;13.18;;;6.40;;
66175;SDS011;52977;44.816;20.538;2023-10-13T14:06:35;14.70;;;7.00;;
66175;SDS011;52977;44.816;20.538;2023-10-13T14:09:03;17.15;;;6.22;;
66175;SDS011;52977;44.816;20.538;2023-10-13T14:11:39;15.82;;;6.93;;
66175;SDS011;52977;44.816;20.538;2023-10-13T14:14:09;10.43;;;5.82;;
66175;SDS011;52977;44.816;20.538;2023-10-13T14:16:40;14.48;;;5.75;;
66175;SDS011;52977;44.816;20.538;2023-10-13T14:19:13;13.35;;;5.88;;
66175;SDS011;52977;44.816;20.538;2023-10-13T14:22:05;14.82;;;5.97;;
66175;SDS011;52977;44.816;20.538;2023-10-13T14:24:32;15.23;;;6.07;;
66175;SDS011;52977;44.816;20.538;2023-10-13T14:27:01;11.18;;;5.80;;
66175;SDS011;52977;44.816;20.538;2023-10-13T14:29:44;11.85;;;6.47;;
66175;SDS011;52977;44.816;20.538;2023-10-13T14:32:12;12.75;;;6.18;;
66175;SDS011;52977;44.816;20.538;2023-10-13T14:34:41;14.68;;;6.25;;
66175;SDS011;52977;44.816;20.538;2023-10-13T14:37:08;13.35;;;6.13;;
66175;SDS011;52977;44.816;20.538;2023-10-13T14:39:55;11.80;;;6.25;;
66175;SDS011;52977;44.816;20.538;2023-10-13T14:42:25;11.38;;;6.13;;
66175;SDS011;52977;44.816;20.538;2023-10-13T14:44:52;11.13;;;6.57;;
66175;SDS011;52977;44.816;20.538;2023-10-13T14:47:25;13.60;;;8.10;;
66175;SDS011;52977;44.816;20.538;2023-10-13T14:49:54;13.60;;;7.47;;
66175;SDS011;52977;44.816;20.538;2023-10-13T14:52:22;15.93;;;7.15;;
66175;SDS011;52977;44.816;20.538;2023-10-13T14:54:48;12.63;;;6.78;;
66175;SDS011;52977;44.816;20.538;2023-10-13T14:57:21;15.70;;;7.30;;
66175;SDS011;52977;44.816;20.538;2023-10-13T14:59:54;16.52;;;7.32;;
66175;SDS011;52977;44.816;20.538;2023-10-13T15:02:21;12.88;;;7.13;;
66175;SDS011;52977;44.816;20.538;2023-10-13T15:04:47;14.77;;;7.18;;
66175;SDS011;52977;44.816;20.538;2023-10-13T15:07:15;17.45;;;7.85;;
66175;SDS011;52977;44.816;20.538;2023-10-13T15:09:43;16.17;;;7.78;;
66175;SDS011;52977;44.816;20.538;2023-10-13T15:12:10;17.08;;;7.53;;
66175;SDS011;52977;44.816;20.538;2023-10-13T15:14:39;13.70;;;7.20;;
66175;SDS011;52977;44.816;20.538;2023-10-13T15:17:08;17.20;;;8.50;;
66175;SDS011;52977;44.816;20.538;2023-10-13T15:19:35;15.45;;;7.75;;
66175;SDS011;52977;44.816;20.538;2023-10-13T15:22:04;15.93;;;7.90;;
66175;SDS011;52977;44.816;20.538;2023-10-13T15:24:47;13.95;;;7.57;;
66175;SDS011;52977;44.816;20.538;2023-10-13T15:27:26;14.25;;;7.97;;
66175;SDS011;52977;44.816;20.538;2023-10-13T15:29:54;14.32;;;7.55;;